sensor_id;sensor_type;location;lat;lon;timestamp;pressure;altitude;pressure_sealevel;temperature;humidity
7168;BME280;3625;51.762;14.320;2022-10-16T00:01:44;100396.19;;;14.33;100.00
7168;BME280;3625;51.762;14.320;2022-10-16T00:04:13;100400.13;;;14.23;100.00
7168;BME280;3625;51.762;14.320;2022-10-16T00:06:42;100399.56;;;14.15;100.00
7168;BME280;3625;51.762;14.320;2022-10-16T00:09:11;100397.06;;;14.10;100.00
7168;BME280;3625;51.762;14.320;2022-10-16T00:11:40;100401.63;;;14.07;100.00
7168;BME280;3625;51.762;14.320;2022-10-16T00:14:12;100405.47;;;14.00;100.00
7168;BME280;3625;51.762;14.320;2022-10-16T00:16:41;100396.03;;;13.91;100.00
7168;BME280;3625;51.762;14.320;2022-10-16T00:19:11;100409.41;;;13.88;100.00
7168;BME280;3625;51.762;14.320;2022-10-16T00:21:39;100414.66;;;13.91;100.00
7168;BME280;3625;51.762;14.320;2022-10-16T00:24:10;100408.59;;;13.86;100.00
7168;BME280;3625;51.762;14.320;2022-10-16T00:26:40;100418.50;;;13.82;100.00
7168;BME280;3625;51.762;14.320;2022-10-16T00:29:09;100412.47;;;13.77;100.00
7168;BME280;3625;51.762;14.320;2022-10-16T00:31:38;100420.50;;;13.76;100.00
7168;BME280;3625;51.762;14.320;2022-10-16T00:34:06;100418.78;;;13.75;100.00
7168;BME280;3625;51.762;14.320;2022-10-16T00:36:35;100421.53;;;13.72;100.00
7168;BME280;3625;51.762;14.320;2022-10-16T00:39:04;100425.94;;;13.73;100.00
7168;BME280;3625;51.762;14.320;2022-10-16T00:41:33;100417.03;;;13.74;100.00
7168;BME280;3625;51.762;14.320;2022-10-16T00:44:43;100427.81;;;13.94;100.00
7168;BME280;3625;51.762;14.320;2022-10-16T00:47:17;100421.50;;;13.96;100.00
7168;BME280;3625;51.762;14.320;2022-10-16T00:49:47;100429.22;;;14.04;100.00
7168;BME280;3625;51.762;14.320;2022-10-16T00:52:18;100418.63;;;14.03;100.00
7168;BME280;3625;51.762;14.320;2022-10-16T00:54:49;100422.53;;;13.92;100.00
7168;BME280;3625;51.762;14.320;2022-10-16T00:57:20;100423.81;;;13.82;100.00
7168;BME280;3625;51.762;14.320;2022-10-16T00:59:49;100412.06;;;13.65;100.00
7168;BME280;3625;51.762;14.320;2022-10-16T01:02:18;100420.13;;;13.62;100.00
7168;BME280;3625;51.762;14.320;2022-10-16T01:04:49;100419.44;;;13.56;100.00
7168;BME280;3625;51.762;14.320;2022-10-16T01:07:43;100417.09;;;13.47;100.00
7168;BME280;3625;51.762;14.320;2022-10-16T01:10:26;100418.06;;;13.45;100.00
7168;BME280;3625;51.762;14.320;2022-10-16T01:13:03;100397.47;;;13.25;100.00
7168;BME280;3625;51.762;14.320;2022-10-16T01:15:37;100415.00;;;13.31;100.00
7168;BME280;3625;51.762;14.320;2022-10-16T01:18:16;100428.03;;;13.38;100.00
7168;BME280;3625;51.762;14.320;2022-10-16T01:20:53;100417.75;;;13.28;100.00
7168;BME280;3625;51.762;14.320;2022-10-16T01:23:36;100359.97;;;12.81;100.00
7168;BME280;3625;51.762;14.320;2022-10-16T01:26:20;100442.75;;;13.22;100.00
7168;BME280;3625;51.762;14.320;2022-10-16T01:28:57;100421.22;;;13.03;100.00
7168;BME280;3625;51.762;14.320;2022-10-16T01:31:33;100432.31;;;13.16;100.00
7168;BME280;3625;51.762;14.320;2022-10-16T01:34:06;100409.81;;;13.00;100.00
7168;BME280;3625;51.762;14.320;2022-10-16T01:36:43;100446.66;;;13.10;100.00
7168;BME280;3625;51.762;14.320;2022-10-16T01:39:14;100412.00;;;12.87;100.00
7168;BME280;3625;51.762;14.320;2022-10-16T01:41:46;100451.03;;;13.11;100.00
7168;BME280;3625;51.762;14.320;2022-10-16T01:44:22;100415.31;;;12.94;100.00
7168;BME280;3625;51.762;14.320;2022-10-16T01:46:55;100458.00;;;13.15;100.00
7168;BME280;3625;51.762;14.320;2022-10-16T01:49:26;100458.84;;;13.17;100.00
7168;BME280;3625;51.762;14.320;2022-10-16T01:52:02;100462.41;;;13.16;100.00
7168;BME280;3625;51.762;14.320;2022-10-16T01:54:37;100438.16;;;12.99;100.00
7168;BME280;3625;51.762;14.320;2022-10-16T01:57:08;100459.75;;;13.16;100.00
7168;BME280;3625;51.762;14.320;2022-10-16T01:59:42;100459.78;;;13.15;100.00
7168;BME280;3625;51.762;14.320;2022-10-16T02:02:12;100469.59;;;13.14;100.00
7168;BME280;3625;51.762;14.320;2022-10-16T02:04:45;100440.16;;;12.93;100.00
7168;BME280;3625;51.762;14.320;2022-10-16T02:07:14;100467.72;;;13.16;100.00
7168;BME280;3625;51.762;14.320;2022-10-16T02:09:44;100471.16;;;13.20;100.00
7168;BME280;3625;51.762;14.320;2022-10-16T02:12:19;100472.91;;;13.21;100.00
7168;BME280;3625;51.762;14.320;2022-10-16T02:14:52;100477.19;;;13.25;100.00
7168;BME280;3625;51.762;14.320;2022-10-16T02:17:21;100482.94;;;13.39;100.00
7168;BME280;3625;51.762;14.320;2022-10-16T02:19:53;100485.97;;;13.53;100.00
7168;BME280;3625;51.762;14.320;2022-10-16T02:22:27;100481.34;;;13.58;100.00
7168;BME280;3625;51.762;14.320;2022-10-16T02:25:01;100470.84;;;13.55;100.00
7168;BME280;3625;51.762;14.320;2022-10-16T02:27:36;100479.47;;;13.62;100.00
7168;BME280;3625;51.762;14.320;2022-10-16T02:30:14;100479.31;;;13.67;100.00
7168;BME280;3625;51.762;14.320;2022-10-16T02:32:49;100483.28;;;13.80;100.00
7168;BME280;3625;51.762;14.320;2022-10-16T02:35:21;100470.59;;;13.88;100.00
7168;BME280;3625;51.762;14.320;2022-10-16T02:37:51;100478.78;;;14.07;100.00
7168;BME280;3625;51.762;14.320;2022-10-16T02:40:20;100484.59;;;14.18;100.00
7168;BME280;3625;51.762;14.320;2022-10-16T02:42:53;100483.25;;;14.29;100.00
7168;BME280;3625;51.762;14.320;2022-10-16T02:45:24;100493.59;;;14.39;100.00
7168;BME280;3625;51.762;14.320;2022-10-16T02:47:52;100495.00;;;14.49;100.00
7168;BME280;3625;51.762;14.320;2022-10-16T02:50:21;100502.69;;;14.56;100.00
7168;BME280;3625;51.762;14.320;2022-10-16T02:52:51;100487.34;;;14.63;100.00
7168;BME280;3625;51.762;14.320;2022-10-16T02:55:20;100487.22;;;14.66;100.00
7168;BME280;3625;51.762;14.320;2022-10-16T02:57:48;100483.44;;;14.71;100.00
7168;BME280;3625;51.762;14.320;2022-10-16T03:00:17;100479.81;;;14.74;100.00
7168;BME280;3625;51.762;14.320;2022-10-16T03:02:48;100470.09;;;14.73;100.00
7168;BME280;3625;51.762;14.320;2022-10-16T03:05:17;100441.75;;;14.49;100.00
7168;BME280;3625;51.762;14.320;2022-10-16T03:07:45;100482.78;;;14.66;100.00
7168;BME280;3625;51.762;14.320;2022-10-16T03:10:13;100452.50;;;14.46;100.00
7168;BME280;3625;51.762;14.320;2022-10-16T03:12:42;100484.69;;;14.63;100.00
7168;BME280;3625;51.762;14.320;2022-10-16T03:15:10;100482.94;;;14.62;100.00
7168;BME280;3625;51.762;14.320;2022-10-16T03:17:39;100491.69;;;14.65;100.00
7168;BME280;3625;51.762;14.320;2022-10-16T03:20:09;100486.31;;;14.67;100.00
7168;BME280;3625;51.762;14.320;2022-10-16T03:22:38;100489.94;;;14.64;100.00
7168;BME280;3625;51.762;14.320;2022-10-16T03:25:07;100494.75;;;14.55;100.00
7168;BME280;3625;51.762;14.320;2022-10-16T03:27:36;100505.53;;;14.52;100.00
7168;BME280;3625;51.762;14.320;2022-10-16T03:30:06;100497.41;;;14.55;100.00
7168;BME280;3625;51.762;14.320;2022-10-16T03:32:35;100495.56;;;14.57;100.00
7168;BME280;3625;51.762;14.320;2022-10-16T03:35:04;100496.44;;;14.57;100.00
7168;BME280;3625;51.762;14.320;2022-10-16T03:37:33;100504.38;;;14.59;100.00
7168;BME280;3625;51.762;14.320;2022-10-16T03:40:03;100447.75;;;14.30;100.00
7168;BME280;3625;51.762;14.320;2022-10-16T03:42:32;100461.56;;;14.42;100.00
7168;BME280;3625;51.762;14.320;2022-10-16T03:45:00;100505.69;;;14.70;100.00
7168;BME280;3625;51.762;14.320;2022-10-16T03:47:29;100494.00;;;14.75;100.00
7168;BME280;3625;51.762;14.320;2022-10-16T03:50:00;100505.47;;;14.77;100.00
7168;BME280;3625;51.762;14.320;2022-10-16T03:52:28;100519.59;;;14.79;100.00
7168;BME280;3625;51.762;14.320;2022-10-16T03:54:58;100527.44;;;14.82;100.00
7168;BME280;3625;51.762;14.320;2022-10-16T03:57:27;100533.50;;;14.87;100.00
7168;BME280;3625;51.762;14.320;2022-10-16T03:59:56;100474.22;;;14.58;100.00
7168;BME280;3625;51.762;14.320;2022-10-16T04:02:25;100526.13;;;14.93;100.00
7168;BME280;3625;51.762;14.320;2022-10-16T04:04:53;100528.72;;;14.95;100.00
7168;BME280;3625;51.762;14.320;2022-10-16T04:07:22;100534.84;;;14.97;100.00
7168;BME280;3625;51.762;14.320;2022-10-16T04:09:51;100533.03;;;14.97;100.00
7168;BME280;3625;51.762;14.320;2022-10-16T04:12:22;100532.00;;;15.01;100.00
7168;BME280;3625;51.762;14.320;2022-10-16T04:14:51;100531.97;;;15.03;100.00
7168;BME280;3625;51.762;14.320;2022-10-16T04:17:19;100534.47;;;15.06;100.00
7168;BME280;3625;51.762;14.320;2022-10-16T04:19:48;100536.22;;;15.07;100.00
7168;BME280;3625;51.762;14.320;2022-10-16T04:22:17;100535.41;;;15.05;100.00
7168;BME280;3625;51.762;14.320;2022-10-16T04:24:46;100539.13;;;15.01;100.00
7168;BME280;3625;51.762;14.320;2022-10-16T04:27:14;100535.19;;;14.88;100.00
7168;BME280;3625;51.762;14.320;2022-10-16T04:29:44;100554.31;;;14.99;100.00
7168;BME280;3625;51.762;14.320;2022-10-16T04:32:13;100534.63;;;14.80;100.00
7168;BME280;3625;51.762;14.320;2022-10-16T04:34:41;100554.59;;;14.91;100.00
7168;BME280;3625;51.762;14.320;2022-10-16T04:37:10;100552.28;;;14.82;100.00
7168;BME280;3625;51.762;14.320;2022-10-16T04:39:39;100551.97;;;14.68;100.00
7168;BME280;3625;51.762;14.320;2022-10-16T04:42:08;100544.66;;;14.50;100.00
7168;BME280;3625;51.762;14.320;2022-10-16T04:44:37;100550.91;;;14.49;100.00
7168;BME280;3625;51.762;14.320;2022-10-16T04:47:07;100545.81;;;14.43;100.00
7168;BME280;3625;51.762;14.320;2022-10-16T04:49:35;100546.72;;;14.42;100.00
7168;BME280;3625;51.762;14.320;2022-10-16T04:52:04;100543.16;;;14.43;100.00
7168;BME280;3625;51.762;14.320;2022-10-16T04:54:33;100500.22;;;14.27;100.00
7168;BME280;3625;51.762;14.320;2022-10-16T04:57:01;100536.03;;;14.43;100.00
7168;BME280;3625;51.762;14.320;2022-10-16T04:59:32;100542.22;;;14.44;100.00
7168;BME280;3625;51.762;14.320;2022-10-16T05:02:00;100552.69;;;14.48;100.00
7168;BME280;3625;51.762;14.320;2022-10-16T05:04:31;100547.41;;;14.47;100.00
7168;BME280;3625;51.762;14.320;2022-10-16T05:07:00;100552.25;;;14.35;100.00
7168;BME280;3625;51.762;14.320;2022-10-16T05:09:29;100556.22;;;14.24;100.00
7168;BME280;3625;51.762;14.320;2022-10-16T05:11:58;100552.03;;;14.17;100.00
7168;BME280;3625;51.762;14.320;2022-10-16T05:14:26;100555.47;;;14.19;100.00
7168;BME280;3625;51.762;14.320;2022-10-16T05:16:55;100557.91;;;14.26;100.00
7168;BME280;3625;51.762;14.320;2022-10-16T05:19:23;100554.81;;;14.37;100.00
7168;BME280;3625;51.762;14.320;2022-10-16T05:21:55;100565.22;;;14.45;100.00
7168;BME280;3625;51.762;14.320;2022-10-16T05:24:24;100566.91;;;14.47;100.00
7168;BME280;3625;51.762;14.320;2022-10-16T05:26:53;100572.25;;;14.47;100.00
7168;BME280;3625;51.762;14.320;2022-10-16T05:29:22;100570.41;;;14.49;100.00
7168;BME280;3625;51.762;14.320;2022-10-16T05:31:51;100568.38;;;14.56;100.00
7168;BME280;3625;51.762;14.320;2022-10-16T05:34:20;100572.69;;;14.60;100.00
7168;BME280;3625;51.762;14.320;2022-10-16T05:36:49;100573.41;;;14.63;100.00
7168;BME280;3625;51.762;14.320;2022-10-16T05:39:19;100577.78;;;14.66;100.00
7168;BME280;3625;51.762;14.320;2022-10-16T05:41:49;100570.69;;;14.65;100.00
7168;BME280;3625;51.762;14.320;2022-10-16T05:44:19;100579.50;;;14.67;100.00
7168;BME280;3625;51.762;14.320;2022-10-16T05:46:48;100578.69;;;14.65;100.00
7168;BME280;3625;51.762;14.320;2022-10-16T05:49:16;100546.59;;;14.45;100.00
7168;BME280;3625;51.762;14.320;2022-10-16T05:51:44;100579.22;;;14.75;100.00
7168;BME280;3625;51.762;14.320;2022-10-16T05:54:13;100587.69;;;14.86;100.00
7168;BME280;3625;51.762;14.320;2022-10-16T05:56:43;100595.19;;;14.98;100.00
7168;BME280;3625;51.762;14.320;2022-10-16T05:59:11;100589.47;;;15.08;100.00
7168;BME280;3625;51.762;14.320;2022-10-16T06:01:40;100586.44;;;15.18;100.00
7168;BME280;3625;51.762;14.320;2022-10-16T06:04:09;100596.75;;;15.27;100.00
7168;BME280;3625;51.762;14.320;2022-10-16T06:06:43;100610.19;;;15.24;100.00
7168;BME280;3625;51.762;14.320;2022-10-16T06:09:11;100611.41;;;15.15;100.00
7168;BME280;3625;51.762;14.320;2022-10-16T06:11:39;100625.94;;;15.06;100.00
7168;BME280;3625;51.762;14.320;2022-10-16T06:14:09;100640.19;;;15.05;100.00
7168;BME280;3625;51.762;14.320;2022-10-16T06:16:38;100634.41;;;15.18;100.00
7168;BME280;3625;51.762;14.320;2022-10-16T06:19:07;100631.19;;;15.31;100.00
7168;BME280;3625;51.762;14.320;2022-10-16T06:21:36;100622.69;;;15.45;100.00
7168;BME280;3625;51.762;14.320;2022-10-16T06:24:05;100626.81;;;15.54;100.00
7168;BME280;3625;51.762;14.320;2022-10-16T06:26:34;100634.03;;;15.50;100.00
7168;BME280;3625;51.762;14.320;2022-10-16T06:29:02;100644.25;;;15.39;100.00
7168;BME280;3625;51.762;14.320;2022-10-16T06:31:32;100551.72;;;14.74;100.00
7168;BME280;3625;51.762;14.320;2022-10-16T06:34:01;100636.50;;;15.09;100.00
7168;BME280;3625;51.762;14.320;2022-10-16T06:36:31;100567.34;;;14.60;100.00
7168;BME280;3625;51.762;14.320;2022-10-16T06:39:00;100584.72;;;14.70;100.00
7168;BME280;3625;51.762;14.320;2022-10-16T06:41:28;100624.94;;;14.87;100.00
7168;BME280;3625;51.762;14.320;2022-10-16T06:44:05;100635.69;;;14.84;100.00
7168;BME280;3625;51.762;14.320;2022-10-16T06:46:36;100644.59;;;14.83;100.00
7168;BME280;3625;51.762;14.320;2022-10-16T06:49:04;100648.09;;;14.85;100.00
7168;BME280;3625;51.762;14.320;2022-10-16T06:51:33;100651.44;;;14.90;100.00
7168;BME280;3625;51.762;14.320;2022-10-16T06:54:09;100648.53;;;14.96;100.00
7168;BME280;3625;51.762;14.320;2022-10-16T06:56:38;100656.19;;;15.05;100.00
7168;BME280;3625;51.762;14.320;2022-10-16T06:59:07;100661.75;;;15.23;100.00
7168;BME280;3625;51.762;14.320;2022-10-16T07:01:36;100612.63;;;15.30;100.00
7168;BME280;3625;51.762;14.320;2022-10-16T07:04:05;100654.75;;;15.89;100.00
7168;BME280;3625;51.762;14.320;2022-10-16T07:06:34;100657.91;;;15.98;100.00
7168;BME280;3625;51.762;14.320;2022-10-16T07:09:06;100595.44;;;15.60;100.00
7168;BME280;3625;51.762;14.320;2022-10-16T07:11:37;100624.91;;;15.79;100.00
7168;BME280;3625;51.762;14.320;2022-10-16T07:14:15;100634.13;;;15.70;100.00
7168;BME280;3625;51.762;14.320;2022-10-16T07:16:46;100681.06;;;15.98;100.00
7168;BME280;3625;51.762;14.320;2022-10-16T07:19:16;100570.28;;;15.44;100.00
7168;BME280;3625;51.762;14.320;2022-10-16T07:21:45;100666.25;;;16.11;100.00
7168;BME280;3625;51.762;14.320;2022-10-16T07:24:15;100676.88;;;16.12;100.00
7168;BME280;3625;51.762;14.320;2022-10-16T07:26:45;100474.28;;;15.02;100.00
7168;BME280;3625;51.762;14.320;2022-10-16T07:29:16;100672.78;;;16.26;100.00
7168;BME280;3625;51.762;14.320;2022-10-16T07:31:46;100683.41;;;16.47;100.00
7168;BME280;3625;51.762;14.320;2022-10-16T07:34:17;100667.16;;;16.52;100.00
7168;BME280;3625;51.762;14.320;2022-10-16T07:36:49;100674.50;;;16.69;100.00
7168;BME280;3625;51.762;14.320;2022-10-16T07:39:18;100682.94;;;16.78;100.00
7168;BME280;3625;51.762;14.320;2022-10-16T07:41:46;100681.69;;;16.87;100.00
7168;BME280;3625;51.762;14.320;2022-10-16T07:44:16;100682.28;;;16.93;100.00
7168;BME280;3625;51.762;14.320;2022-10-16T07:46:47;100693.75;;;16.95;100.00
7168;BME280;3625;51.762;14.320;2022-10-16T07:49:15;100697.25;;;16.97;100.00
7168;BME280;3625;51.762;14.320;2022-10-16T07:51:46;100697.06;;;17.02;100.00
7168;BME280;3625;51.762;14.320;2022-10-16T07:54:18;100704.13;;;17.03;100.00
7168;BME280;3625;51.762;14.320;2022-10-16T07:56:46;100718.38;;;17.04;100.00
7168;BME280;3625;51.762;14.320;2022-10-16T07:59:15;100728.19;;;17.03;100.00
7168;BME280;3625;51.762;14.320;2022-10-16T08:01:45;100736.94;;;17.07;100.00
7168;BME280;3625;51.762;14.320;2022-10-16T08:04:19;100732.97;;;17.15;100.00
7168;BME280;3625;51.762;14.320;2022-10-16T08:06:47;100736.97;;;17.25;100.00
7168;BME280;3625;51.762;14.320;2022-10-16T08:09:17;100731.78;;;17.41;100.00
7168;BME280;3625;51.762;14.320;2022-10-16T08:11:45;100728.16;;;17.62;100.00
7168;BME280;3625;51.762;14.320;2022-10-16T08:14:14;100732.50;;;17.84;100.00
7168;BME280;3625;51.762;14.320;2022-10-16T08:16:45;100735.97;;;18.04;100.00
7168;BME280;3625;51.762;14.320;2022-10-16T08:19:14;100734.13;;;18.24;100.00
7168;BME280;3625;51.762;14.320;2022-10-16T08:21:42;100707.47;;;18.21;100.00
7168;BME280;3625;51.762;14.320;2022-10-16T08:24:11;100740.69;;;18.53;100.00
7168;BME280;3625;51.762;14.320;2022-10-16T08:26:40;100736.47;;;18.66;100.00
7168;BME280;3625;51.762;14.320;2022-10-16T08:29:09;100737.56;;;18.79;100.00
7168;BME280;3625;51.762;14.320;2022-10-16T08:31:38;100743.41;;;18.87;100.00
7168;BME280;3625;51.762;14.320;2022-10-16T08:34:08;100746.94;;;18.88;100.00
7168;BME280;3625;51.762;14.320;2022-10-16T08:36:37;100750.84;;;18.82;100.00
7168;BME280;3625;51.762;14.320;2022-10-16T08:39:05;100746.47;;;18.79;100.00
7168;BME280;3625;51.762;14.320;2022-10-16T08:42:16;100750.84;;;18.82;100.00
7168;BME280;3625;51.762;14.320;2022-10-16T08:45:23;100740.16;;;18.98;100.00
7168;BME280;3625;51.762;14.320;2022-10-16T08:48:10;100741.84;;;19.33;100.00
7168;BME280;3625;51.762;14.320;2022-10-16T08:50:49;100752.97;;;19.76;100.00
7168;BME280;3625;51.762;14.320;2022-10-16T08:53:26;100750.97;;;20.11;100.00
7168;BME280;3625;51.762;14.320;2022-10-16T08:55:56;100752.78;;;20.26;100.00
7168;BME280;3625;51.762;14.320;2022-10-16T08:58:29;100739.38;;;20.10;100.00
7168;BME280;3625;51.762;14.320;2022-10-16T09:01:03;100742.50;;;19.87;100.00
7168;BME280;3625;51.762;14.320;2022-10-16T09:03:54;100747.50;;;19.62;100.00
7168;BME280;3625;51.762;14.320;2022-10-16T09:06:43;100755.00;;;19.38;100.00
7168;BME280;3625;51.762;14.320;2022-10-16T09:09:54;100751.88;;;19.30;100.00
7168;BME280;3625;51.762;14.320;2022-10-16T09:12:31;100751.78;;;19.31;100.00
7168;BME280;3625;51.762;14.320;2022-10-16T09:15:19;100757.53;;;19.74;100.00
7168;BME280;3625;51.762;14.320;2022-10-16T09:18:01;100759.63;;;20.31;100.00
7168;BME280;3625;51.762;14.320;2022-10-16T09:20:44;100762.84;;;20.54;100.00
7168;BME280;3625;51.762;14.320;2022-10-16T09:23:21;100770.00;;;20.69;100.00
7168;BME280;3625;51.762;14.320;2022-10-16T09:25:54;100781.53;;;21.01;100.00
7168;BME280;3625;51.762;14.320;2022-10-16T09:28:24;100791.88;;;21.23;100.00
7168;BME280;3625;51.762;14.320;2022-10-16T09:30:53;100792.69;;;21.39;100.00
7168;BME280;3625;51.762;14.320;2022-10-16T09:33:25;100781.50;;;21.45;100.00
7168;BME280;3625;51.762;14.320;2022-10-16T09:35:57;100771.66;;;21.16;94.60
7168;BME280;3625;51.762;14.320;2022-10-16T09:38:30;100806.72;;;21.14;96.64
7168;BME280;3625;51.762;14.320;2022-10-16T09:41:02;100800.56;;;21.12;96.26
7168;BME280;3625;51.762;14.320;2022-10-16T09:43:38;100794.78;;;21.04;97.09
7168;BME280;3625;51.762;14.320;2022-10-16T09:46:22;100805.75;;;21.31;95.05
7168;BME280;3625;51.762;14.320;2022-10-16T09:48:54;100802.69;;;21.65;94.61
7168;BME280;3625;51.762;14.320;2022-10-16T09:51:26;100818.22;;;22.04;90.03
7168;BME280;3625;51.762;14.320;2022-10-16T09:53:59;100800.97;;;22.07;85.82
7168;BME280;3625;51.762;14.320;2022-10-16T09:56:30;100777.00;;;22.43;82.98
7168;BME280;3625;51.762;14.320;2022-10-16T09:59:10;100834.63;;;22.96;82.69
7168;BME280;3625;51.762;14.320;2022-10-16T10:01:41;100831.22;;;22.80;81.11
7168;BME280;3625;51.762;14.320;2022-10-16T10:04:11;100818.84;;;22.63;80.26
7168;BME280;3625;51.762;14.320;2022-10-16T10:06:44;100827.81;;;22.49;81.60
7168;BME280;3625;51.762;14.320;2022-10-16T10:09:21;100782.00;;;22.23;83.30
7168;BME280;3625;51.762;14.320;2022-10-16T10:11:54;100820.69;;;22.22;82.17
7168;BME280;3625;51.762;14.320;2022-10-16T10:14:27;100839.19;;;21.99;84.30
7168;BME280;3625;51.762;14.320;2022-10-16T10:17:17;100798.84;;;21.55;83.90
7168;BME280;3625;51.762;14.320;2022-10-16T10:19:53;100805.09;;;21.12;84.98
7168;BME280;3625;51.762;14.320;2022-10-16T10:22:26;100819.41;;;20.82;87.27
7168;BME280;3625;51.762;14.320;2022-10-16T10:25:26;100802.13;;;20.56;88.71
7168;BME280;3625;51.762;14.320;2022-10-16T10:28:42;100816.56;;;20.69;89.14
7168;BME280;3625;51.762;14.320;2022-10-16T10:31:20;100816.81;;;20.81;89.14
7168;BME280;3625;51.762;14.320;2022-10-16T10:33:58;100801.25;;;21.01;87.95
7168;BME280;3625;51.762;14.320;2022-10-16T10:39:08;100832.09;;;21.40;86.47
7168;BME280;3625;51.762;14.320;2022-10-16T10:42:15;100827.03;;;21.50;85.37
7168;BME280;3625;51.762;14.320;2022-10-16T10:45:13;100811.16;;;21.59;85.57
7168;BME280;3625;51.762;14.320;2022-10-16T10:48:02;100849.66;;;22.18;81.47
7168;BME280;3625;51.762;14.320;2022-10-16T10:50:43;100855.06;;;22.59;79.33
7168;BME280;3625;51.762;14.320;2022-10-16T10:53:25;100851.28;;;22.76;76.88
7168;BME280;3625;51.762;14.320;2022-10-16T10:56:14;100816.03;;;22.38;77.65
7168;BME280;3625;51.762;14.320;2022-10-16T10:59:15;100843.38;;;22.73;77.63
7168;BME280;3625;51.762;14.320;2022-10-16T11:01:56;100844.19;;;22.87;77.77
7168;BME280;3625;51.762;14.320;2022-10-16T11:07:57;100856.25;;;22.41;77.51
7168;BME280;3625;51.762;14.320;2022-10-16T11:10:33;100797.41;;;21.78;79.72
7168;BME280;3625;51.762;14.320;2022-10-16T11:13:18;100841.66;;;22.16;78.99
7168;BME280;3625;51.762;14.320;2022-10-16T11:15:53;100814.84;;;22.01;79.30
7168;BME280;3625;51.762;14.320;2022-10-16T11:18:32;100768.66;;;21.78;78.52
7168;BME280;3625;51.762;14.320;2022-10-16T11:21:13;100862.25;;;22.17;80.07
7168;BME280;3625;51.762;14.320;2022-10-16T11:23:49;100825.59;;;21.87;79.29
7168;BME280;3625;51.762;14.320;2022-10-16T11:26:25;100820.50;;;21.68;80.60
7168;BME280;3625;51.762;14.320;2022-10-16T11:28:56;100849.97;;;22.13;79.69
7168;BME280;3625;51.762;14.320;2022-10-16T11:31:35;100814.75;;;22.43;78.54
7168;BME280;3625;51.762;14.320;2022-10-16T11:34:12;100803.72;;;22.87;75.91
7168;BME280;3625;51.762;14.320;2022-10-16T11:36:52;100864.78;;;23.55;75.29
7168;BME280;3625;51.762;14.320;2022-10-16T11:39:25;100872.16;;;23.78;75.68
7168;BME280;3625;51.762;14.320;2022-10-16T11:42:02;100874.09;;;23.76;71.82
7168;BME280;3625;51.762;14.320;2022-10-16T11:44:53;100869.03;;;23.45;70.53
7168;BME280;3625;51.762;14.320;2022-10-16T11:47:34;100830.75;;;22.73;75.16
7168;BME280;3625;51.762;14.320;2022-10-16T11:50:30;100865.56;;;22.49;76.16
7168;BME280;3625;51.762;14.320;2022-10-16T11:53:13;100877.91;;;22.53;77.43
7168;BME280;3625;51.762;14.320;2022-10-16T11:55:45;100871.88;;;22.77;74.89
7168;BME280;3625;51.762;14.320;2022-10-16T11:58:24;100684.75;;;21.84;74.93
7168;BME280;3625;51.762;14.320;2022-10-16T12:01:03;100863.59;;;23.07;73.03
7168;BME280;3625;51.762;14.320;2022-10-16T12:03:45;100863.34;;;22.97;73.43
7168;BME280;3625;51.762;14.320;2022-10-16T12:06:30;100873.81;;;22.75;74.87
7168;BME280;3625;51.762;14.320;2022-10-16T12:09:01;100858.50;;;22.75;74.97
7168;BME280;3625;51.762;14.320;2022-10-16T12:11:37;100800.28;;;22.44;76.23
7168;BME280;3625;51.762;14.320;2022-10-16T12:14:33;100854.53;;;22.67;75.93
7168;BME280;3625;51.762;14.320;2022-10-16T12:17:33;100852.44;;;22.57;77.20
7168;BME280;3625;51.762;14.320;2022-10-16T12:20:22;100862.28;;;22.58;77.72
7168;BME280;3625;51.762;14.320;2022-10-16T12:22:55;100863.56;;;22.53;78.11
7168;BME280;3625;51.762;14.320;2022-10-16T12:25:28;100874.75;;;22.47;79.09
7168;BME280;3625;51.762;14.320;2022-10-16T12:28:04;100850.81;;;22.28;79.06
7168;BME280;3625;51.762;14.320;2022-10-16T12:30:36;100886.72;;;22.29;80.11
7168;BME280;3625;51.762;14.320;2022-10-16T12:33:19;100866.56;;;21.92;81.45
7168;BME280;3625;51.762;14.320;2022-10-16T12:35:51;100883.31;;;21.97;82.55
7168;BME280;3625;51.762;14.320;2022-10-16T12:38:25;100884.41;;;22.08;82.25
7168;BME280;3625;51.762;14.320;2022-10-16T12:41:01;100854.00;;;22.06;80.96
7168;BME280;3625;51.762;14.320;2022-10-16T12:43:40;100835.41;;;21.88;80.37
7168;BME280;3625;51.762;14.320;2022-10-16T12:46:32;100873.63;;;22.08;80.66
7168;BME280;3625;51.762;14.320;2022-10-16T12:49:18;100891.81;;;22.19;81.50
7168;BME280;3625;51.762;14.320;2022-10-16T12:51:50;100899.72;;;22.08;80.95
7168;BME280;3625;51.762;14.320;2022-10-16T12:54:23;100900.25;;;21.84;82.19
7168;BME280;3625;51.762;14.320;2022-10-16T12:57:19;100902.50;;;21.62;83.50
7168;BME280;3625;51.762;14.320;2022-10-16T13:00:04;100905.44;;;21.73;84.17
7168;BME280;3625;51.762;14.320;2022-10-16T13:06:15;100914.13;;;21.93;84.40
7168;BME280;3625;51.762;14.320;2022-10-16T13:09:12;100844.81;;;21.52;83.01
7168;BME280;3625;51.762;14.320;2022-10-16T13:12:17;100906.41;;;21.87;82.75
7168;BME280;3625;51.762;14.320;2022-10-16T13:15:25;100908.56;;;22.10;81.19
7168;BME280;3625;51.762;14.320;2022-10-16T13:18:06;100916.19;;;22.03;80.06
7168;BME280;3625;51.762;14.320;2022-10-16T13:21:03;100904.56;;;21.73;81.09
7168;BME280;3625;51.762;14.320;2022-10-16T13:23:44;100876.19;;;21.53;82.15
7168;BME280;3625;51.762;14.320;2022-10-16T13:26:30;100915.22;;;21.60;83.28
7168;BME280;3625;51.762;14.320;2022-10-16T13:29:03;100920.31;;;21.51;84.61
7168;BME280;3625;51.762;14.320;2022-10-16T13:31:33;100928.38;;;21.51;84.86
7168;BME280;3625;51.762;14.320;2022-10-16T13:34:02;100923.00;;;21.51;85.06
7168;BME280;3625;51.762;14.320;2022-10-16T13:36:42;100894.47;;;21.32;85.46
7168;BME280;3625;51.762;14.320;2022-10-16T13:39:13;100918.75;;;21.46;86.12